Tucumcari ASC

2021-05-08 21:50:00

  • imperial
Date Time Air Temperature Relative Humidity Dewpoint Windchill Heat Index Wind Speed Wind Dir. Rain Solar Radiation Soil Temperature
2m 2m 3m 3m 10cm
US/Mountain F % F F F MPH deg in MJ/m^2 F
max avg avg
2021-05-07 21:55:00 58.4 84.7 53.8 58.4 58.4 3.8 4.4 3.7 107.0 88.8 0.00 0.0000000 68.0
2021-05-07 22:00:00 57.7 85.4 53.4 57.7 57.7 4.2 5.6 4.7 78.4 100.9 0.00 0.0000000 67.9
2021-05-07 22:05:00 57.2 87.1 53.4 57.2 57.2 4.6 5.1 4.4 94.2 103.7 0.00 0.0000000 67.7
2021-05-07 22:10:00 58.4 84.9 53.8 58.4 58.4 5.1 6.7 5.3 121.6 123.2 0.00 0.0000000 67.6
2021-05-07 22:15:00 58.7 84.1 53.9 58.7 58.7 5.6 7.2 5.2 149.8 150.8 0.00 0.0000000 67.5
2021-05-07 22:20:00 58.7 82.8 53.5 58.7 58.7 7.1 8.7 6.4 120.0 124.8 0.00 0.0000000 67.4
2021-05-07 22:25:00 59.2 80.7 53.3 59.2 59.2 2.4 9.2 5.7 161.6 144.8 0.00 0.0000000 67.3
2021-05-07 22:30:00 59.6 76.8 52.3 59.6 59.6 2.4 3.0 2.2 260.9 223.4 0.00 0.0000000 67.2
2021-05-07 22:35:00 60.1 74.9 52.1 60.1 60.1 5.5 5.5 3.6 267.7 240.2 0.00 0.0000000 67.0
2021-05-07 22:40:00 60.5 75.9 52.8 60.5 60.5 8.0 10.3 7.7 254.7 247.0 0.00 0.0000079 66.9
2021-05-07 22:45:00 61.7 73.5 53.1 61.7 61.7 9.9 12.2 9.2 151.9 191.9 0.00 0.0000600 66.8
2021-05-07 22:50:00 61.8 67.5 50.9 61.8 61.8 10.8 10.8 8.6 135.3 179.6 0.00 0.0000322 66.8
2021-05-07 22:55:00 63.6 60.0 49.5 63.6 63.6 12.6 14.0 10.4 169.5 159.3 0.00 0.0002125 66.7
2021-05-07 23:00:00 64.0 57.5 48.7 64.0 64.0 12.4 16.4 12.1 129.9 155.0 0.00 0.0000053 66.6
2021-05-07 23:05:00 63.7 58.3 48.8 63.7 63.7 12.6 14.0 10.5 153.1 166.0 0.00 0.0000000 66.5
2021-05-07 23:10:00 63.7 58.3 48.8 63.7 63.7 10.1 13.9 11.3 160.3 164.3 0.00 0.0000000 66.5
2021-05-07 23:15:00 63.4 58.6 48.6 63.4 63.4 9.0 14.7 10.5 151.5 141.1 0.00 0.0000000 66.3
2021-05-07 23:20:00 63.2 59.2 48.8 63.2 63.2 8.3 13.0 9.3 166.3 141.2 0.00 0.0000007 66.2
2021-05-07 23:25:00 63.2 59.3 48.8 63.2 63.2 8.5 11.0 8.6 110.6 147.7 0.00 0.0000000 66.1
2021-05-07 23:30:00 63.0 60.4 49.0 63.0 63.0 11.3 13.3 10.9 107.9 119.2 0.00 0.0000000 66.0
2021-05-07 23:35:00 63.1 59.8 48.9 63.1 63.1 12.1 14.7 11.4 126.5 136.8 0.00 0.0000000 65.9
2021-05-07 23:40:00 63.1 59.4 48.7 63.1 63.1 9.4 14.0 10.5 135.4 148.5 0.00 0.0000000 65.8
2021-05-07 23:45:00 63.1 60.6 49.2 63.1 63.1 6.2 12.8 8.8 134.1 135.4 0.00 0.0000000 65.7
2021-05-07 23:50:00 62.6 61.7 49.3 62.6 62.6 4.7 11.0 7.2 142.8 141.3 0.00 0.0000000 65.6
2021-05-07 23:55:00 62.3 62.2 49.2 62.3 62.3 6.9 8.1 6.2 149.6 142.6 0.00 0.0000000 65.5
2021-05-08 00:00:00 62.2 62.3 49.2 62.2 62.2 6.3 9.2 5.6 163.8 148.2 0.00 0.0000000 65.4
2021-05-08 00:05:00 62.1 63.8 49.7 62.1 62.1 6.2 8.0 6.2 174.0 171.3 0.00 0.0000000 65.3
2021-05-08 00:10:00 61.6 64.8 49.7 61.6 61.6 6.7 7.1 5.4 175.6 171.0 0.00 0.0000000 65.2
2021-05-08 00:15:00 61.8 63.7 49.4 61.8 61.8 6.9 8.3 6.0 128.4 158.1 0.00 0.0000000 65.1
2021-05-08 00:20:00 61.8 64.2 49.5 61.8 61.8 5.6 7.1 5.9 132.0 153.4 0.00 0.0000000 65.0
2021-05-08 00:25:00 61.4 65.2 49.6 61.4 61.4 4.9 7.6 5.5 140.8 148.9 0.00 0.0000000 65.0
2021-05-08 00:30:00 61.9 63.0 49.1 61.9 61.9 5.1 8.3 5.7 169.2 156.1 0.00 0.0000000 64.9
2021-05-08 00:35:00 61.8 63.2 49.1 61.8 61.8 4.2 5.8 3.8 218.4 190.8 0.00 0.0000000 64.8
2021-05-08 00:40:00 60.6 67.6 49.8 60.6 60.6 2.4 4.9 3.2 248.2 256.2 0.00 0.0000000 64.7
2021-05-08 00:45:00 61.0 64.0 48.8 61.0 61.0 1.0 3.8 2.3 199.8 208.1 0.00 0.0000000 64.7
2021-05-08 00:50:00 62.2 60.2 48.2 62.2 62.2 3.5 3.7 2.2 212.4 210.4 0.00 0.0000000 64.6
2021-05-08 00:55:00 62.7 59.3 48.3 62.7 62.7 5.6 6.9 4.5 214.8 213.9 0.00 0.0000000 64.5
2021-05-08 01:00:00 62.4 60.2 48.4 62.4 62.4 4.6 6.0 4.1 183.5 205.4 0.00 0.0000000 64.5
2021-05-08 01:05:00 62.2 60.0 48.2 62.2 62.2 2.4 4.9 3.5 169.0 189.9 0.00 0.0000000 64.4
2021-05-08 01:10:00 61.9 62.3 48.8 61.9 61.9 3.0 4.9 3.5 129.8 149.0 0.00 0.0000000 64.3
2021-05-08 01:15:00 60.8 63.7 48.4 60.8 60.8 2.2 3.3 2.1 111.9 125.1 0.00 0.0000000 64.2
2021-05-08 01:20:00 61.0 63.4 48.5 61.0 61.0 2.4 3.8 1.9 177.6 107.9 0.00 0.0000000 64.1
2021-05-08 01:25:00 60.6 62.3 47.7 60.6 60.6 2.1 2.4 0.7 180.8 174.2 0.00 0.0000000 64.1
2021-05-08 01:30:00 61.2 61.4 47.8 61.2 61.2 0.0 2.8 1.5 287.0 178.2 0.00 0.0000000 64.0
2021-05-08 01:35:00 61.1 61.2 47.7 61.1 61.1 1.2 2.6 1.3 239.9 262.3 0.00 0.0000000 64.0
2021-05-08 01:40:00 61.3 60.8 47.7 61.3 61.3 3.1 3.1 1.0 99.2 100.5 0.00 0.0000000 63.9
2021-05-08 01:45:00 61.3 60.6 47.5 61.3 61.3 0.8 3.1 1.7 85.1 99.4 0.00 0.0000000 63.8
2021-05-08 01:50:00 60.7 63.9 48.4 60.7 60.7 3.0 3.0 1.5 299.9 347.2 0.00 0.0000000 63.7
2021-05-08 01:55:00 59.9 64.3 47.8 59.9 59.9 1.7 3.8 3.1 305.1 310.0 0.00 0.0000000 63.7
2021-05-08 02:00:00 60.5 62.2 47.5 60.5 60.5 0.0 2.6 1.1 2.1 303.4 0.00 0.0000000 63.6
2021-05-08 02:05:00 61.0 60.8 47.4 61.0 61.0 0.0 2.1 0.5 314.3 342.3 0.00 0.0000000 63.5
2021-05-08 02:10:00 60.7 62.2 47.7 60.7 60.7 3.7 3.7 2.4 294.5 289.6 0.00 0.0000000 63.4
2021-05-08 02:15:00 60.3 64.0 48.1 60.3 60.3 3.7 4.4 3.5 284.5 286.8 0.00 0.0000000 63.4
2021-05-08 02:20:00 58.8 67.9 48.3 58.8 58.8 6.2 6.2 4.8 274.7 283.8 0.00 0.0000000 63.3
2021-05-08 02:25:00 58.7 68.7 48.5 58.7 58.7 4.6 6.3 5.2 229.4 259.1 0.00 0.0000000 63.2
2021-05-08 02:30:00 59.7 66.7 48.6 59.7 59.7 3.5 4.2 3.2 235.9 242.0 0.00 0.0000000 63.2
2021-05-08 02:35:00 59.6 67.2 48.7 59.6 59.6 3.5 5.8 4.7 209.3 218.3 0.00 0.0000000 63.1
2021-05-08 02:40:00 59.3 67.6 48.6 59.3 59.3 4.7 5.8 4.4 215.4 196.6 0.00 0.0000000 63.0
2021-05-08 02:45:00 59.8 66.0 48.5 59.8 59.8 3.8 6.9 4.7 184.2 191.0 0.00 0.0000000 62.9
2021-05-08 02:50:00 60.7 63.2 48.1 60.7 60.7 5.6 8.1 5.0 190.7 192.8 0.00 0.0000000 62.9
2021-05-08 02:55:00 60.9 62.7 48.1 60.9 60.9 6.7 6.7 4.6 181.0 199.4 0.00 0.0000000 62.8
2021-05-08 03:00:00 60.5 64.5 48.5 60.5 60.5 3.1 5.3 3.9 234.3 220.8 0.00 0.0000000 62.7
2021-05-08 03:05:00 60.1 65.8 48.6 60.1 60.1 2.8 4.7 3.7 237.5 208.8 0.00 0.0000000 62.6
2021-05-08 03:10:00 59.8 66.7 48.7 59.8 59.8 3.0 6.0 3.8 231.1 214.7 0.00 0.0000000 62.6
2021-05-08 03:15:00 59.3 68.4 48.9 59.3 59.3 1.9 3.5 2.6 218.8 245.8 0.00 0.0000000 62.5
2021-05-08 03:20:00 59.0 68.7 48.7 59.0 59.0 2.2 2.2 1.3 127.6 158.3 0.00 0.0000000 62.4
2021-05-08 03:25:00 58.4 70.3 48.7 58.4 58.4 3.5 3.7 2.0 238.9 172.0 0.00 0.0000000 62.4
2021-05-08 03:30:00 59.1 68.4 48.7 59.1 59.1 4.7 7.6 5.0 206.6 232.7 0.00 0.0000000 62.3
2021-05-08 03:35:00 59.7 67.3 48.8 59.7 59.7 5.1 7.2 5.1 247.1 236.4 0.00 0.0000000 62.2
2021-05-08 03:40:00 59.3 68.5 49.0 59.3 59.3 4.9 6.2 4.6 275.7 251.7 0.00 0.0000000 62.2
2021-05-08 03:45:00 58.5 70.4 48.9 58.5 58.5 4.0 5.5 4.3 270.9 259.7 0.00 0.0000000 62.1
2021-05-08 03:50:00 59.8 65.8 48.4 59.8 59.8 5.6 10.3 5.9 227.5 254.4 0.00 0.0000000 62.0
2021-05-08 03:55:00 60.5 63.9 48.3 60.5 60.5 7.6 8.5 5.9 229.9 243.6 0.00 0.0000000 61.9
2021-05-08 04:00:00 61.3 62.2 48.2 61.3 61.3 6.7 10.8 6.3 222.7 236.8 0.00 0.0000000 61.9
2021-05-08 04:05:00 61.4 61.9 48.2 61.4 61.4 6.5 9.2 5.7 211.0 224.2 0.00 0.0000000 61.8
2021-05-08 04:10:00 61.7 61.5 48.3 61.7 61.7 4.9 9.0 5.9 166.7 197.4 0.00 0.0000000 61.8
2021-05-08 04:15:00 62.0 60.2 48.1 62.0 62.0 6.2 9.2 7.2 211.6 198.3 0.00 0.0000000 61.7
2021-05-08 04:20:00 60.7 64.1 48.5 60.7 60.7 4.0 6.7 5.4 243.5 216.2 0.00 0.0000000 61.6
2021-05-08 04:25:00 59.7 66.0 48.3 59.7 59.7 5.3 5.6 4.8 220.6 225.3 0.00 0.0000000 61.6
2021-05-08 04:30:00 60.1 64.9 48.2 60.1 60.1 6.9 8.1 5.7 215.2 203.2 0.00 0.0000000 61.5
2021-05-08 04:35:00 60.7 62.8 47.9 60.7 60.7 9.0 10.6 7.6 190.3 203.6 0.00 0.0000000 61.5
2021-05-08 04:40:00 61.3 61.5 47.9 61.3 61.3 7.8 10.1 8.1 188.5 192.0 0.00 0.0000000 61.4
2021-05-08 04:45:00 60.7 62.8 47.9 60.7 60.7 5.1 8.5 6.5 183.4 189.7 0.00 0.0000000 61.3
2021-05-08 04:50:00 60.2 64.1 48.0 60.2 60.2 3.7 5.8 4.3 179.1 190.4 0.00 0.0000000 61.3
2021-05-08 04:55:00 60.1 64.3 48.0 60.1 60.1 2.4 7.2 4.2 188.5 195.8 0.00 0.0000000 61.3
2021-05-08 05:00:00 59.6 65.8 48.1 59.6 59.6 3.8 8.3 4.9 309.5 230.9 0.00 0.0000000 61.2
2021-05-08 05:05:00 58.9 67.1 48.0 58.9 58.9 4.4 6.0 4.0 235.7 244.0 0.00 0.0000000 61.1
2021-05-08 05:10:00 58.8 68.2 48.3 58.8 58.8 3.3 4.4 3.2 269.7 247.4 0.00 0.0000000 61.0
2021-05-08 05:15:00 58.3 69.9 48.5 58.3 58.3 5.1 5.5 3.4 237.1 243.8 0.00 0.0000000 61.0
2021-05-08 05:20:00 58.8 69.2 48.7 58.8 58.8 4.7 5.8 4.6 248.5 236.6 0.00 0.0000000 60.9
2021-05-08 05:25:00 58.6 69.7 48.7 58.6 58.6 5.5 6.7 4.9 265.8 249.4 0.00 0.0000000 60.9
2021-05-08 05:30:00 57.6 71.6 48.5 57.6 57.6 5.5 6.2 5.2 275.9 275.5 0.00 0.0000000 60.8
2021-05-08 05:35:00 57.2 72.5 48.5 57.2 57.2 5.6 6.5 5.1 230.4 263.0 0.00 0.0000000 60.8
2021-05-08 05:40:00 58.1 70.7 48.6 58.1 58.1 5.8 6.9 5.6 239.4 243.4 0.00 0.0000000 60.7
2021-05-08 05:45:00 57.8 71.7 48.7 57.8 57.8 5.5 5.5 4.5 252.4 247.0 0.00 0.0000000 60.6
2021-05-08 05:50:00 56.9 73.3 48.4 56.9 56.9 5.8 6.2 5.1 276.9 266.4 0.00 0.0000000 60.6
2021-05-08 05:55:00 55.9 75.6 48.3 55.9 55.9 5.6 6.2 5.8 261.8 274.4 0.00 0.0000108 60.5
2021-05-08 06:00:00 55.6 76.1 48.2 55.6 55.6 5.5 6.2 5.5 269.2 271.6 0.00 0.0006886 60.5
2021-05-08 06:05:00 55.9 75.3 48.2 55.9 55.9 4.4 5.8 5.0 274.5 274.1 0.00 0.0028872 60.4
2021-05-08 06:10:00 55.9 74.6 48.0 55.9 55.9 4.9 5.6 4.7 257.0 271.7 0.00 0.0067289 60.3
2021-05-08 06:15:00 56.2 74.2 48.1 56.2 56.2 4.0 5.3 4.4 265.0 268.2 0.00 0.0105485 60.3
2021-05-08 06:20:00 56.0 75.0 48.2 56.0 56.0 4.2 4.7 4.4 269.0 267.3 0.00 0.0148539 60.2
2021-05-08 06:25:00 56.1 75.0 48.3 56.1 56.1 4.0 4.6 3.8 282.1 267.9 0.00 0.0193571 60.1
2021-05-08 06:30:00 56.4 75.5 48.7 56.4 56.4 4.6 4.6 4.1 293.7 290.6 0.00 0.0243364 60.1
2021-05-08 06:35:00 56.9 73.6 48.6 56.9 56.9 4.0 4.9 3.8 250.2 255.5 0.00 0.0289702 60.0
2021-05-08 06:40:00 57.3 73.3 48.8 57.3 57.3 4.4 5.5 4.5 238.0 247.7 0.00 0.0339872 60.0
2021-05-08 06:45:00 57.6 73.3 49.1 57.6 57.6 3.0 4.6 3.3 280.9 255.7 0.00 0.0386218 60.0
2021-05-08 06:50:00 57.8 72.5 49.1 57.8 57.8 3.7 3.7 2.9 287.2 297.1 0.00 0.0432981 60.0
2021-05-08 06:55:00 58.0 72.7 49.3 58.0 58.0 3.5 4.0 3.3 323.2 297.1 0.00 0.0399304 60.0
2021-05-08 07:00:00 58.4 71.1 49.0 58.4 58.4 5.5 6.2 4.4 308.3 309.8 0.00 0.0509859 60.0
2021-05-08 07:05:00 58.7 70.4 49.1 58.7 58.7 5.6 6.9 5.1 261.5 290.6 0.00 0.0475166 60.0
2021-05-08 07:10:00 59.2 69.3 49.1 59.2 59.2 7.1 8.3 6.2 259.5 265.7 0.00 0.0629169 60.0
2021-05-08 07:15:00 59.8 67.2 48.8 59.8 59.8 7.2 8.5 7.0 244.3 249.2 0.00 0.0671706 60.1
2021-05-08 07:20:00 60.2 65.5 48.6 60.2 60.2 8.0 10.1 7.6 253.0 245.1 0.00 0.0735400 60.1
2021-05-08 07:25:00 60.2 67.1 49.3 60.2 60.2 7.8 9.7 7.2 227.0 231.8 0.00 0.0793665 60.2
2021-05-08 07:30:00 60.8 67.1 49.8 60.8 60.8 7.2 8.0 6.9 227.2 208.6 0.00 0.0844232 60.3
2021-05-08 07:35:00 61.1 65.5 49.5 61.1 61.1 10.5 11.0 8.5 206.7 210.6 0.00 0.0902477 60.4
2021-05-08 07:40:00 61.3 65.2 49.5 61.3 61.3 9.7 13.0 9.3 219.1 216.3 0.00 0.0966488 60.4
2021-05-08 07:45:00 61.6 63.7 49.2 61.6 61.6 9.4 11.0 9.5 264.0 229.3 0.00 0.1036665 60.6
2021-05-08 07:50:00 61.8 62.5 48.8 61.8 61.8 8.3 11.2 9.2 246.7 237.7 0.00 0.1013377 60.7
2021-05-08 07:55:00 62.1 62.8 49.3 62.1 62.1 9.9 12.1 9.3 259.2 242.2 0.00 0.1183328 60.8
2021-05-08 08:00:00 62.6 62.6 49.7 62.6 62.6 9.0 10.6 8.8 223.7 242.7 0.00 0.1248862 60.9
2021-05-08 08:05:00 62.9 60.3 48.9 62.9 62.9 12.8 16.0 11.6 257.5 239.3 0.00 0.1333781 61.1
2021-05-08 08:10:00 63.0 60.6 49.1 63.0 63.0 10.8 13.1 10.7 256.8 245.3 0.00 0.0970124 61.2
2021-05-08 08:15:00 63.3 59.1 48.8 63.3 63.3 11.0 14.0 11.3 248.4 246.6 0.00 0.1231415 61.3
2021-05-08 08:20:00 64.1 58.9 49.5 64.1 64.1 9.7 14.4 10.8 234.5 239.6 0.00 0.1580226 61.5
2021-05-08 08:25:00 64.2 58.4 49.3 64.2 64.2 8.1 13.5 10.6 232.5 236.6 0.00 0.1329357 61.6
2021-05-08 08:30:00 65.0 54.6 48.3 65.0 65.0 7.2 11.2 7.8 217.7 237.1 0.00 0.1716545 61.8
2021-05-08 08:35:00 64.9 54.7 48.2 64.9 64.9 13.0 13.0 9.7 249.6 243.9 0.00 0.1281449 62.0
2021-05-08 08:40:00 65.5 54.6 48.7 65.5 65.5 9.4 14.0 10.5 253.7 251.8 0.00 0.1722406 62.2
2021-05-08 08:45:00 65.2 53.0 47.6 65.2 65.2 10.5 11.2 8.8 268.0 260.2 0.00 0.0975085 62.4
2021-05-08 08:50:00 66.1 52.6 48.3 66.1 66.1 8.8 13.1 9.4 256.6 255.2 0.00 0.1858565 62.6
2021-05-08 08:55:00 66.4 51.6 48.0 66.4 66.4 8.1 13.0 10.4 228.4 251.1 0.00 0.1458519 62.7
2021-05-08 09:00:00 66.6 49.3 47.1 66.6 66.6 10.5 13.9 10.8 266.3 248.8 0.00 0.1756138 62.9
2021-05-08 09:05:00 67.3 47.4 46.6 67.3 67.3 11.2 15.3 11.7 251.4 241.0 0.00 0.2027887 63.1
2021-05-08 09:10:00 67.9 46.3 46.5 67.9 67.9 15.1 16.2 13.1 256.7 250.9 0.00 0.1940862 63.3
2021-05-08 09:15:00 68.3 47.3 47.5 68.3 68.3 11.0 15.6 12.8 279.5 255.8 0.00 0.1867949 63.6
2021-05-08 09:20:00 69.2 45.5 47.2 69.2 69.2 11.3 16.9 13.1 261.8 262.3 0.00 0.1751176 63.8
2021-05-08 09:25:00 69.8 42.3 45.8 69.8 69.8 13.7 16.4 13.6 260.5 262.5 0.00 0.1684178 64.1
2021-05-08 09:30:00 69.7 41.9 45.5 69.7 69.7 14.7 17.4 13.8 256.3 262.6 0.00 0.1723090 64.3
2021-05-08 09:35:00 70.0 38.1 43.3 70.0 70.0 16.0 18.1 14.5 283.2 254.8 0.00 0.1697823 64.5
2021-05-08 09:40:00 70.3 37.1 42.9 70.3 70.3 14.9 18.0 15.2 256.3 253.6 0.00 0.1802496 64.7
2021-05-08 09:45:00 70.7 37.3 43.4 70.7 70.7 13.3 15.8 12.8 249.8 256.1 0.00 0.1814674 64.9
2021-05-08 09:50:00 71.7 33.5 41.4 71.7 71.7 15.5 17.2 14.2 254.1 250.5 0.00 0.2417609 65.1
2021-05-08 09:55:00 72.6 32.0 41.1 72.6 72.6 16.5 19.8 14.6 259.6 246.6 0.00 0.2566620 65.3
2021-05-08 10:00:00 72.6 31.9 40.9 72.6 72.6 13.3 18.1 15.3 253.9 251.6 0.00 0.2063223 65.6
2021-05-08 10:05:00 74.0 29.8 40.4 74.0 74.0 16.2 17.8 14.7 233.9 246.5 0.00 0.2749608 65.8
2021-05-08 10:10:00 74.2 27.5 38.5 74.2 74.2 11.0 19.0 14.7 238.8 239.0 0.00 0.2280361 66.1
2021-05-08 10:15:00 74.2 27.7 38.8 74.2 74.2 8.5 22.1 15.6 247.0 244.9 0.00 0.2239525 66.4
2021-05-08 10:20:00 74.8 25.7 37.3 74.8 74.8 13.9 19.9 14.8 233.1 240.4 0.00 0.2517781 66.7
2021-05-08 10:25:00 75.4 20.4 32.0 75.4 75.4 14.9 20.1 15.5 234.5 247.3 0.00 0.2101875 67.0
2021-05-08 10:30:00 75.7 20.2 32.0 75.7 75.7 16.7 19.6 14.3 231.3 239.5 0.00 0.2772832 67.3
2021-05-08 10:35:00 76.3 18.1 29.8 76.3 76.3 13.1 19.9 16.4 233.2 239.5 0.00 0.2502130 67.6
2021-05-08 10:40:00 76.7 14.8 25.2 76.7 76.7 23.5 23.5 17.4 251.1 250.1 0.00 0.2698870 67.9
2021-05-08 10:45:00 76.7 14.8 25.2 76.7 76.7 17.2 26.0 17.8 236.8 240.1 0.00 0.2200887 68.2
2021-05-08 10:50:00 76.4 14.1 23.9 76.4 76.4 21.4 21.4 16.9 235.9 233.9 0.00 0.1647024 68.5
2021-05-08 10:55:00 76.6 14.9 25.3 76.6 76.6 17.2 21.2 16.4 270.3 243.7 0.00 0.1662634 68.8
2021-05-08 11:00:00 78.1 13.4 23.9 78.1 78.1 17.4 22.8 17.2 257.3 245.4 0.00 0.3028345 69.1
2021-05-08 11:05:00 77.8 14.0 24.7 77.8 77.8 16.5 20.6 16.1 246.9 245.4 0.00 0.2444920 69.3
2021-05-08 11:10:00 78.4 13.5 24.3 78.4 78.4 15.3 20.3 16.1 242.7 241.1 0.00 0.2794648 69.6
2021-05-08 11:15:00 78.4 13.9 25.1 78.4 78.4 12.8 20.1 15.5 244.7 232.3 0.00 0.2739823 69.8
2021-05-08 11:20:00 78.6 13.4 24.4 78.6 78.6 19.8 21.0 17.2 235.3 234.9 0.00 0.2999969 70.2
2021-05-08 11:25:00 79.6 15.3 28.4 79.6 79.6 16.9 21.2 14.7 240.2 239.1 0.00 0.3420662 70.5
2021-05-08 11:30:00 78.7 15.1 27.2 78.7 78.7 17.6 21.9 16.0 234.0 239.5 0.00 0.2557889 70.9
2021-05-08 11:35:00 78.4 14.2 25.5 78.4 78.4 20.5 20.5 17.1 239.4 232.9 0.00 0.2946160 71.3
2021-05-08 11:40:00 79.8 14.6 27.4 79.8 79.8 19.9 23.2 16.5 244.2 243.7 0.00 0.3502759 71.7
2021-05-08 11:45:00 80.7 12.9 25.1 80.7 80.7 14.9 24.4 17.2 254.6 238.9 0.00 0.3496161 72.1
2021-05-08 11:50:00 79.9 10.8 20.2 79.9 79.9 23.3 26.2 20.1 242.3 236.6 0.00 0.3407281 72.5
2021-05-08 11:55:00 80.5 11.2 21.5 80.5 80.5 18.9 28.9 20.5 236.3 240.5 0.00 0.3252871 72.9
2021-05-08 12:00:00 81.1 11.7 23.0 81.1 81.1 19.0 21.2 17.0 254.5 238.9 0.00 0.3378687 73.4
2021-05-08 12:05:00 80.6 11.3 21.8 80.6 80.6 24.2 26.4 20.2 239.5 239.0 0.00 0.3422180 73.8
2021-05-08 12:10:00 80.4 10.4 19.9 80.4 80.4 17.1 23.9 20.2 242.5 239.9 0.00 0.2870769 74.2
2021-05-08 12:15:00 79.6 10.0 18.2 79.6 79.6 18.9 25.6 19.6 221.7 227.2 0.00 0.1848497 74.7
2021-05-08 12:20:00 79.1 10.5 19.0 79.1 79.1 19.9 24.6 18.6 217.1 228.2 0.00 0.1899186 75.0
2021-05-08 12:25:00 81.6 10.7 21.4 81.6 81.6 21.7 23.7 17.7 201.8 224.0 0.00 0.3460164 75.4
2021-05-08 12:30:00 81.6 11.3 22.5 81.6 81.6 11.2 27.6 19.4 205.9 216.7 0.00 0.3423225 75.6
2021-05-08 12:35:00 81.8 10.0 19.8 81.8 81.8 14.0 25.6 17.8 244.1 229.9 0.00 0.3204749 75.9
2021-05-08 12:40:00 81.8 8.8 17.0 81.8 81.8 17.8 27.4 18.6 218.0 222.7 0.00 0.3488061 76.2
2021-05-08 12:45:00 81.7 9.0 17.3 81.7 81.7 17.2 22.1 19.0 211.2 226.8 0.00 0.2956733 76.6
2021-05-08 12:50:00 82.5 9.3 18.8 82.5 82.5 20.5 26.7 19.2 254.9 223.4 0.00 0.3396609 76.9
2021-05-08 12:55:00 82.6 8.4 16.5 82.6 82.6 21.0 22.6 16.6 228.9 235.8 0.00 0.3216064 77.3
2021-05-08 13:00:00 81.8 8.5 16.1 81.8 81.8 26.4 26.4 19.6 237.8 228.1 0.00 0.3315665 77.6
2021-05-08 13:05:00 82.8 9.2 18.8 82.8 82.8 18.3 23.9 18.0 243.4 238.5 0.00 0.3341293 78.0
2021-05-08 13:10:00 82.9 9.0 18.2 82.9 82.9 18.9 18.9 15.0 209.0 224.1 0.00 0.3273902 78.4
2021-05-08 13:15:00 83.0 9.1 18.6 83.0 83.0 17.2 20.8 16.8 246.6 231.0 0.00 0.3323904 78.7
2021-05-08 13:20:00 82.6 8.8 17.5 82.6 82.6 20.3 28.7 18.9 244.3 235.7 0.00 0.3122516 79.1
2021-05-08 13:25:00 83.9 8.8 18.6 83.9 83.9 21.0 21.0 14.3 244.9 228.1 0.00 0.2829589 79.4
2021-05-08 13:30:00 83.6 8.9 18.6 83.6 83.6 18.7 22.8 16.9 214.8 222.6 0.00 0.3287992 79.8
2021-05-08 13:35:00 83.1 8.2 16.3 83.1 83.1 17.2 24.8 18.9 237.7 237.9 0.00 0.2903677 80.1
2021-05-08 13:40:00 83.5 7.9 15.8 83.5 83.5 21.9 25.8 19.6 217.5 223.9 0.00 0.3241639 80.4
2021-05-08 13:45:00 84.5 7.5 15.2 84.5 84.5 23.9 29.2 18.1 269.9 229.0 0.00 0.3196840 80.7
2021-05-08 13:50:00 84.7 6.7 12.9 84.7 84.7 22.8 28.0 22.3 276.7 260.0 0.00 0.3211838 81.0
2021-05-08 13:55:00 85.2 7.5 15.7 85.2 85.2 18.0 26.0 21.4 273.4 270.3 0.00 0.3213898 81.2
2021-05-08 14:00:00 85.5 7.3 15.2 85.5 85.5 18.5 25.3 20.4 250.8 273.9 0.00 0.3202626 81.5
2021-05-08 14:05:00 84.6 7.2 14.4 84.6 84.6 21.9 26.2 21.3 278.8 256.3 0.00 0.2932242 81.7
2021-05-08 14:10:00 85.0 7.1 14.4 85.0 85.0 19.0 22.4 17.7 219.6 246.8 0.00 0.3227381 81.9
2021-05-08 14:15:00 84.5 7.4 15.0 84.5 84.5 14.2 23.5 18.1 212.5 229.4 0.00 0.3125091 82.1
2021-05-08 14:20:00 85.0 7.3 15.0 85.0 85.0 22.4 24.6 19.5 235.1 245.1 0.00 0.3101772 82.3
2021-05-08 14:25:00 84.7 6.9 13.5 84.7 84.7 21.0 24.2 18.3 270.9 248.9 0.00 0.3058066 82.6
2021-05-08 14:30:00 85.0 7.9 16.9 85.0 85.0 8.5 20.6 13.3 222.0 244.9 0.00 0.3029856 82.8
2021-05-08 14:35:00 85.9 7.2 15.2 85.9 85.9 18.5 26.9 16.8 249.1 233.2 0.00 0.2906848 83.0
2021-05-08 14:40:00 84.8 6.8 13.3 84.8 84.8 16.0 23.7 16.6 250.9 262.1 0.00 0.2185739 83.2
2021-05-08 14:45:00 85.7 7.4 15.7 85.7 85.7 11.0 24.9 18.3 246.4 254.5 0.00 0.2965653 83.5
2021-05-08 14:50:00 86.3 6.5 13.3 86.3 86.3 22.3 26.2 17.6 267.7 265.3 0.00 0.3006757 83.6
2021-05-08 14:55:00 86.4 6.8 14.4 86.4 86.4 17.4 24.9 19.7 249.8 260.4 0.00 0.2885487 83.8
2021-05-08 15:00:00 85.6 6.4 12.4 85.6 85.6 19.8 28.1 20.2 271.5 260.0 0.00 0.2831929 83.9
2021-05-08 15:05:00 86.1 7.0 14.8 86.1 86.1 18.1 19.2 15.7 252.7 254.5 0.00 0.2783042 84.1
2021-05-08 15:10:00 85.3 6.5 12.7 85.3 85.3 15.3 30.5 19.4 241.1 262.2 0.00 0.1848256 84.2
2021-05-08 15:15:00 84.8 6.7 12.8 84.8 84.8 22.4 29.4 21.9 250.9 253.7 0.00 0.2319292 84.3
2021-05-08 15:20:00 85.9 6.4 12.7 85.9 85.9 17.8 21.7 17.6 249.8 256.0 0.00 0.2860662 84.4
2021-05-08 15:25:00 85.4 6.9 14.0 85.4 85.4 18.1 25.8 17.6 239.9 250.5 0.00 0.2161900 84.4
2021-05-08 15:30:00 85.0 6.5 12.5 85.0 85.0 18.5 27.6 21.2 267.4 259.9 0.00 0.1876004 84.4
2021-05-08 15:35:00 85.0 7.0 13.9 85.0 85.0 18.5 22.1 16.9 275.4 261.3 0.00 0.1738031 84.4
2021-05-08 15:40:00 85.1 7.0 14.1 85.1 85.1 22.8 27.8 22.1 256.2 264.2 0.00 0.1961694 84.4
2021-05-08 15:45:00 85.0 7.2 14.5 85.0 85.0 14.2 28.9 21.2 254.5 259.5 0.00 0.2282124 84.3
2021-05-08 15:50:00 85.5 7.0 14.3 85.5 85.5 25.8 31.4 23.1 235.4 256.3 0.00 0.2571098 84.2
2021-05-08 15:55:00 85.8 7.6 16.5 85.8 85.8 16.2 27.6 18.8 247.9 241.1 0.00 0.2379119 84.1
2021-05-08 16:00:00 85.7 6.0 11.0 85.7 85.7 20.6 28.0 21.4 255.0 252.7 0.00 0.2208273 84.0
2021-05-08 16:05:00 85.0 5.5 8.4 85.0 85.0 23.9 30.1 24.2 244.6 252.6 0.00 0.1896185 83.9
2021-05-08 16:10:00 85.2 6.0 10.6 85.2 85.2 21.4 30.1 23.2 235.7 241.5 0.00 0.2351501 83.8
2021-05-08 16:15:00 85.1 6.2 11.4 85.1 85.1 28.1 31.9 26.1 247.9 251.9 0.00 0.2233723 83.7
2021-05-08 16:20:00 85.0 6.5 12.3 85.0 85.0 19.8 26.9 19.8 260.8 244.9 0.00 0.2147330 83.6
2021-05-08 16:25:00 85.0 6.6 12.8 85.0 85.0 21.4 27.2 22.6 258.9 257.8 0.00 0.2094516 83.5
2021-05-08 16:30:00 86.1 7.1 15.3 86.1 86.1 16.9 22.1 17.7 266.9 261.2 0.00 0.2054188 83.5
2021-05-08 16:35:00 86.5 7.5 16.8 86.5 86.5 18.3 24.6 18.9 249.5 263.5 0.00 0.1933780 83.4
2021-05-08 16:40:00 85.7 7.2 15.1 85.7 85.7 17.8 28.1 20.8 238.8 260.5 0.00 0.1960122 83.4
2021-05-08 16:45:00 85.6 7.5 16.2 85.6 85.6 21.5 24.9 19.8 279.3 258.9 0.00 0.1875618 83.4
2021-05-08 16:50:00 85.0 7.6 15.9 85.0 85.0 23.3 31.9 20.4 259.7 249.3 0.00 0.1810080 83.4
2021-05-08 16:55:00 85.0 7.3 15.1 85.0 85.0 18.9 25.5 20.0 247.8 256.6 0.00 0.1768885 83.4
2021-05-08 17:00:00 84.5 7.3 14.5 84.5 84.5 14.9 23.3 18.9 241.3 237.4 0.00 0.1698877 83.4
2021-05-08 17:05:00 84.8 6.4 11.7 84.8 84.8 29.0 30.1 22.3 239.1 246.2 0.00 0.1645938 83.4
2021-05-08 17:10:00 84.5 6.2 10.8 84.5 84.5 19.2 23.2 19.5 247.4 244.3 0.00 0.1577200 83.4
2021-05-08 17:15:00 84.7 6.9 13.3 84.7 84.7 19.6 24.9 20.1 269.6 247.9 0.00 0.1517217 83.3
2021-05-08 17:20:00 84.5 6.6 12.2 84.5 84.5 23.9 31.5 22.2 254.6 252.0 0.00 0.1448128 83.3
2021-05-08 17:25:00 84.6 6.8 13.1 84.6 84.6 13.7 28.3 19.6 270.9 252.8 0.00 0.1380168 83.2
2021-05-08 17:30:00 84.8 6.9 13.4 84.8 84.8 29.6 29.6 18.2 254.9 260.7 0.00 0.1325681 83.2
2021-05-08 17:35:00 84.0 6.7 12.2 84.0 84.0 26.5 31.9 25.7 261.8 255.7 0.00 0.1259844 83.1
2021-05-08 17:40:00 83.6 6.6 11.8 83.6 83.6 29.0 34.6 26.7 246.8 252.3 0.00 0.1204163 83.1
2021-05-08 17:45:00 83.6 6.9 12.5 83.6 83.6 21.9 29.4 24.7 243.8 254.0 0.00 0.1157174 83.0
2021-05-08 17:50:00 83.6 7.4 14.2 83.6 83.6 19.9 24.0 20.3 222.7 243.5 0.00 0.1099385 82.9
2021-05-08 17:55:00 83.4 7.9 15.7 83.4 83.4 13.0 23.5 19.1 248.2 249.1 0.00 0.1044602 82.8
2021-05-08 18:00:00 83.6 7.6 15.0 83.6 83.6 20.6 21.5 15.4 252.6 243.7 0.00 0.0990018 82.7
2021-05-08 18:05:00 83.2 7.6 14.7 83.2 83.2 18.7 24.2 19.7 238.2 252.1 0.00 0.0941047 82.6
2021-05-08 18:10:00 83.2 7.7 15.0 83.2 83.2 22.3 25.6 19.6 230.4 248.8 0.00 0.0900214 82.5
2021-05-08 18:15:00 83.1 7.3 13.7 83.1 83.1 20.5 25.5 18.6 231.6 241.9 0.00 0.0846366 82.3
2021-05-08 18:20:00 83.1 7.3 13.5 83.1 83.1 25.1 28.0 21.4 260.7 248.2 0.00 0.0779139 82.2
2021-05-08 18:25:00 83.0 7.1 12.9 83.0 83.0 17.8 22.6 17.5 281.1 248.9 0.00 0.0728406 82.0
2021-05-08 18:30:00 83.0 7.5 14.2 83.0 83.0 15.1 22.6 14.6 254.1 252.0 0.00 0.0672779 81.9
2021-05-08 18:35:00 82.9 7.0 12.3 82.9 82.9 20.1 26.0 17.8 267.1 256.4 0.00 0.0628897 81.7
2021-05-08 18:40:00 82.6 6.5 10.6 82.6 82.6 24.2 25.8 18.2 268.7 270.6 0.00 0.0582121 81.6
2021-05-08 18:45:00 82.5 5.9 8.2 82.5 82.5 20.3 28.7 22.7 269.0 261.4 0.00 0.0533827 81.4
2021-05-08 18:50:00 82.4 6.1 8.9 82.4 82.4 17.2 26.2 19.1 243.8 267.7 0.00 0.0481638 81.3
2021-05-08 18:55:00 82.0 6.4 10.0 82.0 82.0 12.2 18.7 15.7 265.9 266.5 0.00 0.0427563 81.1
2021-05-08 19:00:00 82.0 6.2 9.2 82.0 82.0 22.6 24.6 18.5 269.1 265.8 0.00 0.0377611 80.9
2021-05-08 19:05:00 81.8 6.1 8.5 81.8 81.8 15.6 24.2 19.1 261.0 263.1 0.00 0.0336220 80.8
2021-05-08 19:10:00 81.4 5.9 7.5 81.4 81.4 19.6 23.5 16.6 280.2 269.9 0.00 0.0284720 80.6
2021-05-08 19:15:00 81.0 6.3 8.6 81.0 81.0 12.8 21.5 16.7 285.3 269.4 0.00 0.0235604 80.4
2021-05-08 19:20:00 80.5 6.3 8.6 80.5 80.5 13.0 18.1 15.0 243.3 262.0 0.00 0.0188555 80.3
2021-05-08 19:25:00 80.3 6.2 7.9 80.3 80.3 11.9 18.3 13.8 252.5 260.0 0.00 0.0144074 80.1
2021-05-08 19:30:00 80.1 6.1 7.5 80.1 80.1 15.1 18.3 14.3 258.9 255.7 0.00 0.0104016 79.9
2021-05-08 19:35:00 79.3 6.4 7.8 79.3 79.3 10.6 18.1 13.4 277.7 259.5 0.00 0.0058156 79.7
2021-05-08 19:40:00 78.4 6.9 8.8 78.4 78.4 12.1 15.5 11.4 257.6 257.2 0.00 0.0027108 79.5
2021-05-08 19:45:00 78.0 7.0 8.8 78.0 78.0 11.7 14.6 11.3 238.6 253.9 0.00 0.0003207 79.3
2021-05-08 19:50:00 77.7 7.2 9.2 77.7 77.7 16.5 16.5 10.6 252.6 256.8 0.00 0.0000000 79.1
2021-05-08 19:55:00 77.4 7.4 9.6 77.4 77.4 12.1 13.9 10.8 253.4 256.5 0.00 0.0000000 78.8
2021-05-08 20:00:00 77.1 7.3 9.2 77.1 77.1 13.1 14.2 11.2 246.4 256.7 0.00 0.0000000 78.7
2021-05-08 20:05:00 76.6 7.6 9.6 76.6 76.6 9.9 13.3 10.1 263.8 258.9 0.00 0.0000000 78.5
2021-05-08 20:10:00 76.2 8.0 10.5 76.2 76.2 9.6 11.3 9.3 278.4 261.7 0.00 0.0000000 78.2
2021-05-08 20:15:00 76.9 7.5 9.8 76.9 76.9 8.8 16.4 12.0 250.5 262.3 0.00 0.0000000 78.0
2021-05-08 20:20:00 75.7 8.3 10.9 75.7 75.7 9.7 12.2 9.4 262.5 261.5 0.00 0.0000000 77.8
2021-05-08 20:25:00 75.1 8.6 11.3 75.1 75.1 8.3 11.2 9.1 259.1 259.4 0.00 0.0000000 77.6
2021-05-08 20:30:00 74.4 9.2 12.3 74.4 74.4 6.2 10.1 8.0 245.4 252.7 0.00 0.0000000 77.4
2021-05-08 20:35:00 74.2 9.4 12.6 74.2 74.2 6.7 8.7 7.0 262.0 249.3 0.00 0.0000000 77.2
2021-05-08 20:40:00 73.2 10.0 13.3 73.2 73.2 6.3 7.6 6.4 237.9 248.4 0.00 0.0000000 77.0
2021-05-08 20:45:00 72.0 11.1 14.8 72.0 72.0 6.0 6.3 5.2 251.2 243.9 0.00 0.0000000 76.8
2021-05-08 20:50:00 71.8 11.1 14.5 71.8 71.8 5.6 7.2 5.5 245.3 241.6 0.00 0.0000000 76.6
2021-05-08 20:55:00 71.8 11.3 14.9 71.8 71.8 5.1 6.3 5.6 246.6 242.0 0.00 0.0000000 76.4
2021-05-08 21:00:00 70.9 11.9 15.6 70.9 70.9 5.8 7.2 5.6 255.0 251.7 0.00 0.0000000 76.2
2021-05-08 21:05:00 69.8 13.1 16.9 69.8 69.8 6.9 8.1 6.1 276.4 269.7 0.00 0.0000000 76.0
2021-05-08 21:10:00 70.3 12.2 15.7 70.3 70.3 7.4 8.7 7.1 286.2 266.7 0.00 0.0000000 75.8
2021-05-08 21:15:00 70.3 12.5 16.2 70.3 70.3 4.6 7.4 6.0 282.0 280.5 0.00 0.0000000 75.6
2021-05-08 21:20:00 69.6 13.1 16.7 69.6 69.6 4.6 4.9 4.2 256.0 282.3 0.00 0.0000000 75.5
2021-05-08 21:25:00 68.6 14.0 17.5 68.6 68.6 4.6 4.7 4.0 269.4 258.3 0.00 0.0000000 75.3
2021-05-08 21:30:00 68.2 14.4 17.8 68.2 68.2 3.7 4.6 3.6 296.0 286.8 0.00 0.0000000 75.1
2021-05-08 21:35:00 68.6 15.3 19.5 68.6 68.6 4.6 4.6 4.2 313.2 309.5 0.00 0.0000000 74.9
2021-05-08 21:40:00 68.3 15.4 19.4 68.3 68.3 5.1 5.6 4.6 311.2 308.0 0.00 0.0000000 74.7
2021-05-08 21:45:00 68.2 15.5 19.5 68.2 68.2 4.2 5.3 4.0 297.5 325.3 0.00 0.0000000 74.5
2021-05-08 21:50:00 68.8 15.5 20.0 68.8 68.8 6.7 7.8 6.3 325.8 308.5 0.00 0.0000000 74.3

Data is courtesy of the NM Climate Center. DO NOT USE IN LEGAL PROCEEDINGS.